Isabella — 9HSL7 — position and weather

sailwx.info

Track history (hours):
 
Tides and Currents Weather Stations Pressure Air Temp Water Temp Dewpoint Dewpoint Depression Visibility Wind Speed Wind Dir Waves Ship Positions

Isabella

Last reported at 2017-Aug-19 22:27 UTC. Time now 2017-Aug-19 22:31 UTC.
Position N 57°51' E 010°32'.

Length 244 m; draft 14.1 m.

Type: Tanker. MMSI: 215545000.

Date/timePositionNaut miles runAvg speedWind from/ knotsBaromVisibWave heightAir tempDewpointWater temp
2017-Aug-19 22:27N 57°51' E 010°32'511.0
2017-Aug-19 22:00N 57°49' E 010°40'510.0
2017-Aug-19 21:28N 57°45' E 010°48'5 9.6
2017-Aug-19 20:59N 57°41' E 010°44'3 7.1
2017-Aug-19 20:30N 57°40' E 010°38'0 0.1
2017-Aug-19 18:51N 57°40' E 010°38'0 0.0
2017-Aug-19 17:18N 57°40' E 010°38'0 0.0
2017-Aug-19 17:00N 57°40' E 010°38'0 0.0
2017-Aug-19 16:27N 57°40' E 010°38'0 0.1
2017-Aug-19 15:51N 57°40' E 010°38'0 0.0
2017-Aug-19 15:21N 57°40' E 010°38'0 0.1
2017-Aug-19 14:54N 57°40' E 010°38'0 0.0
2017-Aug-19 13:59N 57°40' E 010°38'1 2.5
2017-Aug-19 13:30N 57°40' E 010°40'3 5.4
2017-Aug-19 12:58N 57°40' E 010°46'5 9.7
2017-Aug-19 12:30N 57°37' E 010°52'612.1
2017-Aug-19 11:58N 57°34' E 011°03'612.3
2017-Aug-19 11:30N 57°32' E 011°12'611.9
2017-Aug-19 10:59N 57°29' E 011°23'611.8
2017-Aug-19 10:30N 57°24' E 011°28'612.7
2017-Aug-19 10:00N 57°18' E 011°32'713.1
2017-Aug-19 09:30N 57°12' E 011°36'712.9
2017-Aug-19 09:00N 57°06' E 011°40'5311.3
2017-Aug-19 04:19N 56°14' E 011°20'412.0
2017-Aug-19 03:59N 56°10' E 011°17'612.3
2017-Aug-19 03:27N 56°05' E 011°10'613.0
2017-Aug-19 03:00N 56°00' E 011°05'612.1
2017-Aug-19 02:29N 55°55' E 010°57'610.8
2017-Aug-19 01:59N 55°53' E 010°49'612.8
2017-Aug-19 01:30N 55°47' E 010°49'713.3
2017-Aug-19 01:00N 55°40' E 010°47'713.1
2017-Aug-19 00:29N 55°34' E 010°50'713.0
2017-Aug-18 23:59N 55°28' E 010°56'612.6
2017-Aug-18 23:29N 55°23' E 011°02'612.4
2017-Aug-18 23:00N 55°17' E 011°04'511.0
2017-Aug-18 22:30N 55°11' E 011°04'611.3
2017-Aug-18 22:00N 55°06' E 010°59'612.0
2017-Aug-18 21:30N 55°00' E 010°59'612.0
2017-Aug-18 21:00N 54°56' E 010°53'612.8
2017-Aug-18 20:30N 54°49' E 010°50'612.8
2017-Aug-18 20:00N 54°43' E 010°47'611.1
2017-Aug-18 19:30N 54°39' E 010°52'612.8
2017-Aug-18 19:00N 54°36' E 011°02'612.8
2017-Aug-18 18:30N 54°35' E 011°13'713.1
2017-Aug-18 18:00N 54°32' E 011°23'713.1
2017-Aug-18 17:30N 54°30' E 011°34'612.8
2017-Aug-18 17:00N 54°27' E 011°44'612.6
2017-Aug-18 16:30N 54°26' E 011°55'612.5
2017-Aug-18 16:00N 54°27' E 012°05'510.4
2017-Aug-18 15:30N 54°30' E 012°13'611.8
2017-Aug-18 15:00N 54°35' E 012°16'18 9.8
2017-Aug-18 13:13N 54°45' E 012°41'4011.1
2017-Aug-18 09:36N 55°00' E 013°46'212.0
2017-Aug-18 09:28N 55°01' E 013°48'611.9
2017-Aug-18 08:59N 55°03' E 013°58'611.7
2017-Aug-18 08:30N 55°05' E 014°07'611.9
2017-Aug-18 08:00N 55°10' E 014°13'612.1
2017-Aug-18 07:30N 55°15' E 014°19'612.3
2017-Aug-18 07:00N 55°20' E 014°26'612.4
2017-Aug-18 06:30N 55°24' E 014°33'612.1
2017-Aug-18 06:00N 55°28' E 014°42'612.3
2017-Aug-18 05:30N 55°31' E 014°51'612.4
2017-Aug-18 05:00N 55°34' E 015°01'612.4
2017-Aug-18 04:30N 55°37' E 015°10'612.0
2017-Aug-18 04:00N 55°39' E 015°20'611.8
2017-Aug-18 03:30N 55°41' E 015°30'611.4
2017-Aug-18 03:00N 55°41' E 015°40'611.6
2017-Aug-18 02:30N 55°43' E 015°50'611.9
2017-Aug-18 02:00N 55°44' E 016°01'612.0
2017-Aug-18 01:30N 55°46' E 016°11'611.8
2017-Aug-18 01:00N 55°47' E 016°21'612.1
2017-Aug-18 00:30N 55°49' E 016°32'612.1
2017-Aug-18 00:00N 55°50' E 016°42'612.0
2017-Aug-17 23:30N 55°52' E 016°52'612.1
2017-Aug-17 23:00N 55°53' E 017°03'612.2
2017-Aug-17 22:30N 55°55' E 017°13'712.3
2017-Aug-17 21:57N 55°57' E 017°25'512.3
2017-Aug-17 21:30N 55°58' E 017°35'612.1
2017-Aug-17 21:00N 56°00' E 017°45'611.9
2017-Aug-17 20:30N 56°03' E 017°54'611.8
2017-Aug-17 20:00N 56°06' E 018°03'611.7
2017-Aug-17 19:30N 56°10' E 018°11'611.7
2017-Aug-17 19:00N 56°13' E 018°20'611.7
2017-Aug-17 18:30N 56°16' E 018°29'611.7
2017-Aug-17 18:00N 56°19' E 018°38'611.3
2017-Aug-17 17:30N 56°22' E 018°46'611.8
2017-Aug-17 17:00N 56°28' E 018°51'611.8
2017-Aug-17 16:30N 56°33' E 018°56'611.8
2017-Aug-17 15:59N 56°38' E 019°01'912.1
2017-Aug-17 15:13N 56°46' E 019°09'312.4
2017-Aug-17 15:00N 56°49' E 019°12'6712.5
2017-Aug-17 09:39N 57°48' E 020°07'211.6
2017-Aug-17 09:30N 57°50' E 020°09'1012.2
2017-Aug-17 08:42N 57°59' E 020°16'312.4
2017-Aug-17 08:30N 58°01' E 020°18'712.7
2017-Aug-17 07:59N 58°07' E 020°24'612.6
2017-Aug-17 07:29N 58°13' E 020°29'612.3
2017-Aug-17 06:59N 58°18' E 020°35'712.8
2017-Aug-17 06:24N 58°24' E 020°42'612.5
2017-Aug-17 05:57N 58°29' E 020°48'512.6
2017-Aug-17 05:30N 58°34' E 020°54'712.1
2017-Aug-17 04:57N 58°39' E 021°01'612.1
2017-Aug-17 04:26N 58°45' E 021°07'511.9
2017-Aug-17 04:00N 58°49' E 021°12'611.9
2017-Aug-17 03:31N 58°54' E 021°18'611.7
2017-Aug-17 03:00N 58°59' E 021°24'611.7
2017-Aug-17 02:30N 59°04' E 021°30'611.6
2017-Aug-17 02:00N 59°09' E 021°36'611.7
2017-Aug-17 01:31N 59°13' E 021°45'612.0
2017-Aug-17 01:00N 59°16' E 021°54'612.0
2017-Aug-17 00:30N 59°20' E 022°03'611.9
2017-Aug-17 00:00N 59°24' E 022°13'611.9
2017-Aug-16 23:31N 59°27' E 022°22'611.7
2017-Aug-16 23:00N 59°31' E 022°32'612.0
2017-Aug-16 22:30N 59°32' E 022°43'612.0
2017-Aug-16 22:00N 59°34' E 022°54'612.1
2017-Aug-16 21:30N 59°36' E 023°06'612.7
2017-Aug-16 21:01N 59°37' E 023°18'713.3
2017-Aug-16 20:30N 59°39' E 023°30'612.3
2017-Aug-16 20:00N 59°41' E 023°42'712.2
2017-Aug-16 19:28N 59°43' E 023°55'4 9.2
2017-Aug-16 19:00N 59°44' E 024°03'611.6
2017-Aug-16 18:30N 59°45' E 024°14'611.8
2017-Aug-16 18:00N 59°47' E 024°25'612.2
2017-Aug-16 17:31N 59°48' E 024°37'611.8
2017-Aug-16 17:00N 59°49' E 024°49'611.9
2017-Aug-16 16:31N 59°51' E 025°00'611.8
2017-Aug-16 16:00N 59°52' E 025°12'611.9
2017-Aug-16 15:30N 59°53' E 025°23'612.2
2017-Aug-16 15:00N 59°54' E 025°35'611.9
2017-Aug-16 14:31N 59°55' E 025°47'713.2
2017-Aug-16 14:00N 59°57' E 025°59'612.4
2017-Aug-16 13:30N 59°59' E 026°11'611.8
2017-Aug-16 13:01N 59°60' E 026°23'611.8
2017-Aug-16 12:30N 60°01' E 026°34'712.2
2017-Aug-16 11:58N 60°00' E 026°47'511.9
2017-Aug-16 11:31N 59°60' E 026°58'611.3
2017-Aug-16 11:00N 60°01' E 027°09'5 9.9
2017-Aug-16 10:30N 60°04' E 027°18'713.1
2017-Aug-16 10:00N 60°07' E 027°29'611.5
2017-Aug-16 09:31N 60°10' E 027°39'510.6
2017-Aug-16 09:00N 60°12' E 027°49'612.2
2017-Aug-16 08:30N 60°10' E 028°01'612.4
2017-Aug-16 08:01N 60°09' E 028°13'612.3
2017-Aug-16 07:30N 60°05' E 028°23'510.4
2017-Aug-16 07:00N 60°03' E 028°32'510.7
2017-Aug-16 06:31N 59°58' E 028°35'3 6.9
2017-Aug-16 06:00N 59°55' E 028°32'713.4
2017-Aug-16 05:30N 59°49' E 028°26'4 8.7
2017-Aug-16 05:01N 59°45' E 028°25'3 5.2
2017-Aug-16 04:31N 59°42' E 028°25'0 0.2
2017-Aug-16 04:00N 59°42' E 028°26'0 0.0
2017-Aug-16 03:27N 59°42' E 028°26'0 0.0
2017-Aug-16 02:51N 59°42' E 028°26'0 0.0
2017-Aug-16 02:29N 59°42' E 028°26'0 0.0
2017-Aug-16 01:57N 59°42' E 028°26'0 0.0
2017-Aug-16 01:30N 59°42' E 028°26'0 0.0
2017-Aug-16 00:57N 59°42' E 028°26'0 0.0
2017-Aug-16 00:24N 59°42' E 028°26'0 0.0
2017-Aug-15 23:42N 59°42' E 028°26'0 0.0
2017-Aug-15 23:30N 59°42' E 028°26'0 0.0
2017-Aug-15 22:57N 59°42' E 028°26'0 0.0
2017-Aug-15 22:30N 59°42' E 028°26'0 0.0
2017-Aug-15 22:00N 59°42' E 028°26'0 0.0
2017-Aug-15 21:30N 59°42' E 028°26'0 0.0
2017-Aug-15 21:00N 59°42' E 028°26'0 0.0
2017-Aug-15 20:30N 59°42' E 028°26'0 0.0
2017-Aug-15 20:00N 59°42' E 028°26'0 0.0
2017-Aug-15 19:27N 59°42' E 028°26'0 0.0
2017-Aug-15 19:00N 59°42' E 028°26'0 0.0
2017-Aug-15 18:30N 59°42' E 028°26'0 0.0
2017-Aug-15 18:00N 59°42' E 028°26'0 0.0
2017-Aug-15 17:30N 59°42' E 028°26'0 0.0
2017-Aug-15 16:51N 59°42' E 028°26'0 0.0
2017-Aug-15 16:30N 59°42' E 028°26'0 0.0
2017-Aug-15 15:51N 59°42' E 028°26'0 0.0
2017-Aug-15 15:21N 59°42' E 028°26'0 0.0
2017-Aug-15 14:54N 59°42' E 028°26'0 0.0
2017-Aug-15 14:24N 59°42' E 028°26'0 0.0
2017-Aug-15 13:54N 59°42' E 028°26'0 0.0
2017-Aug-15 13:24N 59°42' E 028°26'0 0.0
2017-Aug-15 12:54N 59°42' E 028°26'0 0.0
2017-Aug-15 12:24N 59°42' E 028°26'0 0.0
2017-Aug-15 11:57N 59°42' E 028°26'0 0.0
2017-Aug-15 11:27N 59°42' E 028°26'0 0.0
2017-Aug-15 10:57N 59°42' E 028°26'0 0.0
2017-Aug-15 10:27N 59°42' E 028°26'0 0.0
2017-Aug-15 09:57N 59°42' E 028°26'0 0.0
2017-Aug-15 09:27N 59°42' E 028°26'0 0.0
2017-Aug-15 09:00N 59°42' E 028°26'0 0.0
2017-Aug-15 08:30N 59°42' E 028°26'0 0.0
2017-Aug-15 08:00N 59°42' E 028°26'0 0.0
2017-Aug-15 07:24N 59°42' E 028°26'0 0.0
2017-Aug-15 07:00N 59°42' E 028°26'0 0.0
2017-Aug-15 06:27N 59°42' E 028°26'0 0.0
2017-Aug-15 06:00N 59°42' E 028°26'0 0.0
2017-Aug-15 05:30N 59°42' E 028°26'0 0.0
2017-Aug-15 05:00N 59°42' E 028°26'0 0.1
2017-Aug-15 04:30N 59°42' E 028°26'1 1.2
2017-Aug-15 04:00N 59°41' E 028°25'2 3.5
2017-Aug-15 03:31N 59°43' E 028°23'3 7.0
2017-Aug-15 03:00N 59°46' E 028°24'611.3
2017-Aug-15 02:30N 59°52' E 028°27'611.3
2017-Aug-15 02:00N 59°56' E 028°34'4 7.6
2017-Aug-15 01:31N 60°00' E 028°36'4 7.4
2017-Aug-15 01:01N 60°03' E 028°41'4 8.2
2017-Aug-15 00:30N 60°03' E 028°49'3 5.6
2017-Aug-15 00:01N 60°03' E 028°55'3 6.1
2017-Aug-14 23:30N 60°03' E 029°01'4 7.3
2017-Aug-14 23:00N 60°02' E 029°08'5 9.6
2017-Aug-14 22:30N 60°02' E 029°18'4 8.8
2017-Aug-14 22:00N 60°02' E 029°27'4 7.9
2017-Aug-14 21:30N 60°01' E 029°34'510.9
2017-Aug-14 21:00N 59°59' E 029°45'4 7.1
2017-Aug-14 20:30N 59°57' E 029°51'5 9.5
2017-Aug-14 20:00N 59°55' E 029°60'4 8.2
2017-Aug-14 19:30N 59°54' E 030°07'2 3.1
2017-Aug-14 18:58N 59°53' E 030°10'0 0.0
2017-Aug-14 18:28N 59°53' E 030°10'0 0.0
2017-Aug-14 17:58N 59°53' E 030°10'0 0.0
2017-Aug-14 17:28N 59°53' E 030°10'0 0.0
2017-Aug-14 16:58N 59°53' E 030°10'0 0.0
2017-Aug-14 16:25N 59°53' E 030°10'0 0.0
2017-Aug-14 15:58N 59°53' E 030°10'0 0.0
2017-Aug-14 15:28N 59°53' E 030°10'0 0.0
2017-Aug-14 14:58N 59°53' E 030°10'0 0.0
2017-Aug-14 14:28N 59°53' E 030°10'0 0.0
2017-Aug-14 13:58N 59°53' E 030°10'0 0.0
2017-Aug-14 13:28N 59°53' E 030°10'0 0.0
2017-Aug-14 12:58N 59°53' E 030°10'0 0.0
2017-Aug-14 12:28N 59°53' E 030°10'0 0.0
2017-Aug-14 11:58N 59°53' E 030°10'0 0.0
2017-Aug-14 11:28N 59°53' E 030°10'0 0.0
2017-Aug-14 10:58N 59°53' E 030°10'0 0.0
2017-Aug-14 10:28N 59°53' E 030°10'0 0.0
2017-Aug-14 09:58N 59°53' E 030°10'0 0.0
2017-Aug-14 09:28N 59°53' E 030°10'0 0.0
2017-Aug-14 08:58N 59°53' E 030°10'0 0.0
2017-Aug-14 08:28N 59°53' E 030°10'0 0.0
2017-Aug-14 07:58N 59°53' E 030°10'0 0.0
2017-Aug-14 07:28N 59°53' E 030°10'0 0.0
2017-Aug-14 06:52N 59°53' E 030°10'0 0.0
2017-Aug-14 06:25N 59°53' E 030°10'0 0.0
2017-Aug-14 06:00N 59°53' E 030°10'0 0.0
2017-Aug-14 05:28N 59°53' E 030°10'0 0.0
2017-Aug-14 04:58N 59°53' E 030°10'0 0.0
2017-Aug-14 04:28N 59°53' E 030°10'0 0.0
2017-Aug-14 03:58N 59°53' E 030°10'0 0.0
2017-Aug-14 03:28N 59°53' E 030°10'0 0.0
2017-Aug-14 02:58N 59°53' E 030°10'0 0.0
2017-Aug-14 02:28N 59°53' E 030°10'0 0.0
2017-Aug-14 01:58N 59°53' E 030°10'0 0.0
2017-Aug-14 01:28N 59°53' E 030°10'0 0.0
2017-Aug-14 00:58N 59°53' E 030°10'0 0.0
2017-Aug-14 00:28N 59°53' E 030°10'0 0.0
2017-Aug-13 23:58N 59°53' E 030°10'0 0.0
2017-Aug-13 23:28N 59°53' E 030°10'0 0.0
2017-Aug-13 22:58N 59°53' E 030°10'0 0.0
2017-Aug-13 22:28N 59°53' E 030°10'0 0.0
2017-Aug-13 21:58N 59°53' E 030°10'0 0.0
2017-Aug-13 21:28N 59°53' E 030°10'0 0.0
2017-Aug-13 20:58N 59°53' E 030°10'0 0.0
2017-Aug-13 20:28N 59°53' E 030°10'0 0.0
2017-Aug-13 19:55N 59°53' E 030°10'0 0.0
2017-Aug-13 19:28N 59°53' E 030°10'0 0.0
2017-Aug-13 18:55N 59°53' E 030°10'0 0.0
2017-Aug-13 18:28N 59°53' E 030°10'0 0.0
2017-Aug-13 17:58N 59°53' E 030°10'0 0.0
2017-Aug-13 17:28N 59°53' E 030°10'0 0.0
2017-Aug-13 16:58N 59°53' E 030°10'0 0.0
2017-Aug-13 16:28N 59°53' E 030°10'0 0.0
2017-Aug-13 15:58N 59°53' E 030°10'0 0.0
2017-Aug-13 15:28N 59°53' E 030°10'0 0.0
2017-Aug-13 14:58N 59°53' E 030°10'0 0.0
2017-Aug-13 14:28N 59°53' E 030°10'0 0.0
2017-Aug-13 13:58N 59°53' E 030°10'0 0.0
2017-Aug-13 13:28N 59°53' E 030°10'0 0.0
2017-Aug-13 12:58N 59°53' E 030°10'0 0.0
2017-Aug-13 12:28N 59°53' E 030°10'0 0.0
2017-Aug-13 11:58N 59°53' E 030°10'0 0.0
2017-Aug-13 11:28N 59°53' E 030°10'0 0.0
2017-Aug-13 10:58N 59°53' E 030°10'0 0.0
2017-Aug-13 10:28N 59°53' E 030°10'0 0.0
2017-Aug-13 09:58N 59°53' E 030°10'0 0.0
2017-Aug-13 09:28N 59°53' E 030°10'0 0.0
2017-Aug-13 08:58N 59°53' E 030°10'0 0.0
2017-Aug-13 08:28N 59°53' E 030°10'0 0.0
2017-Aug-13 07:58N 59°53' E 030°10'0 0.0
2017-Aug-13 07:28N 59°53' E 030°10'0 0.0
2017-Aug-13 06:55N 59°53' E 030°10'0 0.0
2017-Aug-13 06:28N 59°53' E 030°10'0 0.0
2017-Aug-13 05:58N 59°53' E 030°10'0 0.0
2017-Aug-13 05:28N 59°53' E 030°10'0 0.0
2017-Aug-13 04:58N 59°53' E 030°10'0 0.1
2017-Aug-13 04:30N 59°53' E 030°10'1 1.9
2017-Aug-13 04:00N 59°54' E 030°08'4 8.1
2017-Aug-13 03:30N 59°55' E 030°01'510.7
2017-Aug-13 03:00N 59°57' E 029°51'510.0
2017-Aug-13 02:30N 59°59' E 029°42'510.9
2017-Aug-13 02:01N 60°01' E 029°32'4 6.9
2017-Aug-13 01:30N 60°01' E 029°25'3 6.0
2017-Aug-13 01:00N 60°02' E 029°19'1 2.6
2017-Aug-13 00:30N 60°03' E 029°20'2 4.1
2017-Aug-13 00:00N 60°06' E 029°20'0 0.1
2017-Aug-12 23:08N 60°05' E 029°20'0 0.1
2017-Aug-12 22:56N 60°05' E 029°20'0 0.0
2017-Aug-12 22:11N 60°05' E 029°20'0 0.2
2017-Aug-12 21:59N 60°06' E 029°20'0 0.0
2017-Aug-12 16:56N 60°06' E 029°20'0 0.1
2017-Aug-12 16:23N 60°06' E 029°20'0 0.0
2017-Aug-12 15:14N 60°06' E 029°20'0 0.0
2017-Aug-12 14:05N 60°06' E 029°20'0 0.1
2017-Aug-12 13:47N 60°06' E 029°20'0 0.0
2017-Aug-12 13:05N 60°06' E 029°20'0 0.1
2017-Aug-12 12:53N 60°06' E 029°20'0 0.1
2017-Aug-12 12:29N 60°06' E 029°20'0 0.1
2017-Aug-12 11:59N 60°06' E 029°20'0 0.0
2017-Aug-12 11:02N 60°06' E 029°20'0 0.3
2017-Aug-12 10:59N 60°06' E 029°20'0 0.3
2017-Aug-12 10:29N 60°06' E 029°20'0 0.1
2017-Aug-12 09:59N 60°06' E 029°20'0 0.1
2017-Aug-12 09:29N 60°06' E 029°20'0 0.0
2017-Aug-12 08:59N 60°06' E 029°20'0 0.0
2017-Aug-12 08:29N 60°06' E 029°20'0 0.0
2017-Aug-12 07:59N 60°06' E 029°20'0 0.0
2017-Aug-12 07:29N 60°06' E 029°20'0 0.0
2017-Aug-12 06:59N 60°06' E 029°20'0 0.0
2017-Aug-12 06:29N 60°06' E 029°20'0 0.0
2017-Aug-12 05:59N 60°06' E 029°20'0 0.0
2017-Aug-12 05:29N 60°06' E 029°20'0 0.0
2017-Aug-12 04:59N 60°06' E 029°20'0 0.0
2017-Aug-12 04:29N 60°06' E 029°20'0 0.3
2017-Aug-12 04:01N 60°06' E 029°20'1 1.4
2017-Aug-12 03:30N 60°05' E 029°20'1 2.9
2017-Aug-12 03:01N 60°03' E 029°20'2 4.5
2017-Aug-12 02:30N 60°02' E 029°16'3 6.8
2017-Aug-12 02:00N 60°02' E 029°10'3 5.9
2017-Aug-12 01:31N 60°02' E 029°04'2 5.0
2017-Aug-12 01:01N 60°02' E 028°59'3 6.1
2017-Aug-12 00:31N 60°02' E 028°53'4 7.5
2017-Aug-12 00:00N 60°02' E 028°45'4 7.7
2017-Aug-11 23:31N 60°02' E 028°37'4 7.5
2017-Aug-11 23:00N 60°03' E 028°30'4 7.2
2017-Aug-11 22:30N 60°04' E 028°23'4 7.4
2017-Aug-11 22:00N 60°06' E 028°17'4 7.4
2017-Aug-11 21:30N 60°08' E 028°11'4 7.6
2017-Aug-11 21:01N 60°09' E 028°03'4 7.7
2017-Aug-11 20:30N 60°10' E 027°56'4 7.3
2017-Aug-11 20:00N 60°10' E 027°49'4 7.4
2017-Aug-11 19:30N 60°09' E 027°42'4 8.2
2017-Aug-11 19:00N 60°07' E 027°35'3 5.7
2017-Aug-11 18:30N 60°06' E 027°30'3 5.8
2017-Aug-11 18:00N 60°04' E 027°25'3 6.3
2017-Aug-11 17:30N 60°02' E 027°19'4 7.6
2017-Aug-11 17:00N 60°00' E 027°13'4 7.4
2017-Aug-11 16:30N 59°59' E 027°06'4 7.2
2017-Aug-11 16:01N 59°58' E 026°59'4 7.6
2017-Aug-11 15:30N 59°59' E 026°52'4 7.7
2017-Aug-11 15:00N 59°60' E 026°44'2 4.6
2017-Aug-11 14:30N 60°01' E 026°41'8 7.7
2017-Aug-11 13:30N 59°60' E 026°56'510.0
2017-Aug-11 13:00N 60°00' E 027°06'5 9.8
2017-Aug-11 12:30N 60°03' E 027°14'4 8.1
2017-Aug-11 12:01N 60°05' E 027°21'3 6.9
2017-Aug-11 11:31N 60°06' E 027°27'3 6.6
2017-Aug-11 11:00N 60°08' E 027°33'3 6.7
2017-Aug-11 10:31N 60°10' E 027°39'3 6.8
2017-Aug-11 10:00N 60°12' E 027°45'3 6.3
2017-Aug-11 09:30N 60°11' E 027°51'3 6.6
2017-Aug-11 09:00N 60°11' E 027°57'3 6.9
2017-Aug-11 08:30N 60°10' E 028°04'3 6.9
2017-Aug-11 08:00N 60°09' E 028°11'4 7.4
2017-Aug-11 07:30N 60°08' E 028°18'1 2.7
2017-Aug-11 07:01N 60°07' E 028°15'2 4.7
2017-Aug-11 06:30N 60°08' E 028°11'2 4.4
2017-Aug-11 06:01N 60°08' E 028°06'2 4.4
2017-Aug-11 05:30N 60°09' E 028°02'2 4.6
2017-Aug-11 05:00N 60°09' E 027°58'4 7.2
2017-Aug-11 04:30N 60°10' E 027°51'612.7
2017-Aug-11 04:01N 60°08' E 027°39'4 7.2
2017-Aug-11 03:30N 60°06' E 027°32'3 5.9
2017-Aug-11 03:00N 60°05' E 027°27'3 6.1
2017-Aug-11 02:30N 60°03' E 027°22'3 6.1
2017-Aug-11 02:00N 60°02' E 027°17'3 6.2
2017-Aug-11 01:30N 59°60' E 027°12'3 5.9
2017-Aug-11 01:01N 59°58' E 027°07'3 5.8
2017-Aug-11 00:30N 59°58' E 027°01'3 6.6
2017-Aug-11 00:01N 59°58' E 026°55'3 6.5
2017-Aug-10 23:30N 59°59' E 026°48'3 6.5
2017-Aug-10 23:00N 59°60' E 026°42'3 6.3
2017-Aug-10 22:30N 59°59' E 026°36'3 6.5
2017-Aug-10 22:00N 59°58' E 026°29'3 6.4
2017-Aug-10 21:30N 59°57' E 026°24'3 5.3
2017-Aug-10 21:00N 59°56' E 026°19'1 2.6
2017-Aug-10 20:30N 59°55' E 026°16'1 2.8
2017-Aug-10 20:01N 59°55' E 026°13'1 2.8
2017-Aug-10 19:31N 59°55' E 026°11'1 2.6
2017-Aug-10 19:01N 59°54' E 026°08'1 2.6
2017-Aug-10 18:30N 59°54' E 026°06'1 2.7
2017-Aug-10 18:00N 59°53' E 026°03'1 2.7
2017-Aug-10 17:31N 59°53' E 026°01'1 2.8
2017-Aug-10 17:00N 59°53' E 025°58'1 2.4
2017-Aug-10 16:30N 59°53' E 025°56'1 2.3
2017-Aug-10 16:00N 59°52' E 025°54'1 2.9
2017-Aug-10 15:30N 59°51' E 025°51'1 2.7
2017-Aug-10 15:00N 59°51' E 025°48'1 2.3
2017-Aug-10 14:30N 59°51' E 025°46'1 2.0
2017-Aug-10 14:00N 59°51' E 025°44'1 1.7
2017-Aug-10 13:30N 59°51' E 025°43'1 2.2
2017-Aug-10 13:00N 59°50' E 025°40'1 2.1
2017-Aug-10 12:30N 59°50' E 025°38'1 1.9
2017-Aug-10 12:00N 59°50' E 025°36'1 2.3
2017-Aug-10 11:30N 59°50' E 025°34'1 2.3
2017-Aug-10 11:00N 59°50' E 025°32'1 2.2
2017-Aug-10 10:31N 59°49' E 025°30'1 2.1
2017-Aug-10 10:00N 59°49' E 025°28'1 2.6
2017-Aug-10 09:30N 59°49' E 025°25'1 2.3
2017-Aug-10 09:01N 59°49' E 025°23'1 2.6
2017-Aug-10 08:30N 59°49' E 025°20'2 4.2
2017-Aug-10 08:01N 59°49' E 025°16'3 6.2
2017-Aug-10 07:30N 59°48' E 025°10'3 6.2
2017-Aug-10 07:00N 59°48' E 025°04'3 6.3
2017-Aug-10 06:31N 59°47' E 024°58'3 6.6
2017-Aug-10 06:01N 59°46' E 024°52'3 6.9
2017-Aug-10 05:30N 59°46' E 024°45'4 7.1
2017-Aug-10 05:00N 59°45' E 024°38'4 8.2
2017-Aug-10 04:30N 59°44' E 024°30'4 7.9
2017-Aug-10 04:00N 59°43' E 024°22'4 7.8
2017-Aug-10 03:30N 59°42' E 024°15'4 7.9
2017-Aug-10 03:00N 59°41' E 024°07'4 8.0
2017-Aug-10 02:30N 59°39' E 024°00'4 7.9
2017-Aug-10 02:00N 59°38' E 023°53'4 7.8
2017-Aug-10 01:30N 59°37' E 023°45'4 7.9
2017-Aug-10 01:01N 59°36' E 023°38'4 8.0
2017-Aug-10 00:31N 59°34' E 023°30'4 8.1
2017-Aug-10 00:00N 59°33' E 023°23'4 8.0
2017-Aug-09 23:31N 59°32' E 023°15'4 7.9
2017-Aug-09 23:01N 59°31' E 023°08'4 7.9
2017-Aug-09 22:31N 59°29' E 023°01'  
Track history (hours):
 
Tides and Currents Weather Stations Pressure Air Temp Water Temp Dewpoint Dewpoint Depression Visibility Wind Speed Wind Dir Waves Ship Positions

Isabella

Last reported at 2017-Aug-19 22:27 UTC. Time now 2017-Aug-19 22:31 UTC.
Position N 57°51' E 010°32'.

Length 244 m; draft 14.1 m.

Type: Tanker. MMSI: 215545000.

Date/timePositionNaut miles runAvg speedWind from/ knotsBaromVisibWave heightAir tempDewpointWater temp
2017-Aug-19 22:27N 57°51' E 010°32'511.0
2017-Aug-19 22:00N 57°49' E 010°40'510.0
2017-Aug-19 21:28N 57°45' E 010°48'5 9.6
2017-Aug-19 20:59N 57°41' E 010°44'3 7.1
2017-Aug-19 20:30N 57°40' E 010°38'0 0.1
2017-Aug-19 18:51N 57°40' E 010°38'0 0.0
2017-Aug-19 17:18N 57°40' E 010°38'0 0.0
2017-Aug-19 17:00N 57°40' E 010°38'0 0.0
2017-Aug-19 16:27N 57°40' E 010°38'0 0.1
2017-Aug-19 15:51N 57°40' E 010°38'0 0.0
2017-Aug-19 15:21N 57°40' E 010°38'0 0.1
2017-Aug-19 14:54N 57°40' E 010°38'0 0.0
2017-Aug-19 13:59N 57°40' E 010°38'1 2.5
2017-Aug-19 13:30N 57°40' E 010°40'3 5.4
2017-Aug-19 12:58N 57°40' E 010°46'5 9.7
2017-Aug-19 12:30N 57°37' E 010°52'612.1
2017-Aug-19 11:58N 57°34' E 011°03'612.3
2017-Aug-19 11:30N 57°32' E 011°12'611.9
2017-Aug-19 10:59N 57°29' E 011°23'611.8
2017-Aug-19 10:30N 57°24' E 011°28'612.7
2017-Aug-19 10:00N 57°18' E 011°32'713.1
2017-Aug-19 09:30N 57°12' E 011°36'712.9
2017-Aug-19 09:00N 57°06' E 011°40'5311.3
2017-Aug-19 04:19N 56°14' E 011°20'412.0
2017-Aug-19 03:59N 56°10' E 011°17'612.3
2017-Aug-19 03:27N 56°05' E 011°10'613.0
2017-Aug-19 03:00N 56°00' E 011°05'612.1
2017-Aug-19 02:29N 55°55' E 010°57'610.8
2017-Aug-19 01:59N 55°53' E 010°49'612.8
2017-Aug-19 01:30N 55°47' E 010°49'713.3
2017-Aug-19 01:00N 55°40' E 010°47'713.1
2017-Aug-19 00:29N 55°34' E 010°50'713.0
2017-Aug-18 23:59N 55°28' E 010°56'612.6
2017-Aug-18 23:29N 55°23' E 011°02'612.4
2017-Aug-18 23:00N 55°17' E 011°04'511.0
2017-Aug-18 22:30N 55°11' E 011°04'611.3
2017-Aug-18 22:00N 55°06' E 010°59'612.0
2017-Aug-18 21:30N 55°00' E 010°59'612.0
2017-Aug-18 21:00N 54°56' E 010°53'612.8
2017-Aug-18 20:30N 54°49' E 010°50'612.8
2017-Aug-18 20:00N 54°43' E 010°47'611.1
2017-Aug-18 19:30N 54°39' E 010°52'612.8
2017-Aug-18 19:00N 54°36' E 011°02'612.8
2017-Aug-18 18:30N 54°35' E 011°13'713.1
2017-Aug-18 18:00N 54°32' E 011°23'713.1
2017-Aug-18 17:30N 54°30' E 011°34'612.8
2017-Aug-18 17:00N 54°27' E 011°44'612.6
2017-Aug-18 16:30N 54°26' E 011°55'612.5
2017-Aug-18 16:00N 54°27' E 012°05'510.4
2017-Aug-18 15:30N 54°30' E 012°13'611.8
2017-Aug-18 15:00N 54°35' E 012°16'18 9.8
2017-Aug-18 13:13N 54°45' E 012°41'4011.1
2017-Aug-18 09:36N 55°00' E 013°46'212.0
2017-Aug-18 09:28N 55°01' E 013°48'611.9
2017-Aug-18 08:59N 55°03' E 013°58'611.7
2017-Aug-18 08:30N 55°05' E 014°07'611.9
2017-Aug-18 08:00N 55°10' E 014°13'612.1
2017-Aug-18 07:30N 55°15' E 014°19'612.3
2017-Aug-18 07:00N 55°20' E 014°26'612.4
2017-Aug-18 06:30N 55°24' E 014°33'612.1
2017-Aug-18 06:00N 55°28' E 014°42'612.3
2017-Aug-18 05:30N 55°31' E 014°51'612.4
2017-Aug-18 05:00N 55°34' E 015°01'612.4
2017-Aug-18 04:30N 55°37' E 015°10'612.0
2017-Aug-18 04:00N 55°39' E 015°20'611.8
2017-Aug-18 03:30N 55°41' E 015°30'611.4
2017-Aug-18 03:00N 55°41' E 015°40'611.6
2017-Aug-18 02:30N 55°43' E 015°50'611.9
2017-Aug-18 02:00N 55°44' E 016°01'612.0
2017-Aug-18 01:30N 55°46' E 016°11'611.8
2017-Aug-18 01:00N 55°47' E 016°21'612.1
2017-Aug-18 00:30N 55°49' E 016°32'612.1
2017-Aug-18 00:00N 55°50' E 016°42'612.0
2017-Aug-17 23:30N 55°52' E 016°52'612.1
2017-Aug-17 23:00N 55°53' E 017°03'612.2
2017-Aug-17 22:30N 55°55' E 017°13'712.3
2017-Aug-17 21:57N 55°57' E 017°25'512.3
2017-Aug-17 21:30N 55°58' E 017°35'612.1
2017-Aug-17 21:00N 56°00' E 017°45'611.9
2017-Aug-17 20:30N 56°03' E 017°54'611.8
2017-Aug-17 20:00N 56°06' E 018°03'611.7
2017-Aug-17 19:30N 56°10' E 018°11'611.7
2017-Aug-17 19:00N 56°13' E 018°20'611.7
2017-Aug-17 18:30N 56°16' E 018°29'611.7
2017-Aug-17 18:00N 56°19' E 018°38'611.3
2017-Aug-17 17:30N 56°22' E 018°46'611.8
2017-Aug-17 17:00N 56°28' E 018°51'611.8
2017-Aug-17 16:30N 56°33' E 018°56'611.8
2017-Aug-17 15:59N 56°38' E 019°01'912.1
2017-Aug-17 15:13N 56°46' E 019°09'312.4
2017-Aug-17 15:00N 56°49' E 019°12'6712.5
2017-Aug-17 09:39N 57°48' E 020°07'211.6
2017-Aug-17 09:30N 57°50' E 020°09'1012.2
2017-Aug-17 08:42N 57°59' E 020°16'312.4
2017-Aug-17 08:30N 58°01' E 020°18'712.7
2017-Aug-17 07:59N 58°07' E 020°24'612.6
2017-Aug-17 07:29N 58°13' E 020°29'612.3
2017-Aug-17 06:59N 58°18' E 020°35'712.8
2017-Aug-17 06:24N 58°24' E 020°42'612.5
2017-Aug-17 05:57N 58°29' E 020°48'512.6
2017-Aug-17 05:30N 58°34' E 020°54'712.1
2017-Aug-17 04:57N 58°39' E 021°01'612.1
2017-Aug-17 04:26N 58°45' E 021°07'511.9
2017-Aug-17 04:00N 58°49' E 021°12'611.9
2017-Aug-17 03:31N 58°54' E 021°18'611.7
2017-Aug-17 03:00N 58°59' E 021°24'611.7
2017-Aug-17 02:30N 59°04' E 021°30'611.6
2017-Aug-17 02:00N 59°09' E 021°36'611.7
2017-Aug-17 01:31N 59°13' E 021°45'612.0
2017-Aug-17 01:00N 59°16' E 021°54'612.0
2017-Aug-17 00:30N 59°20' E 022°03'611.9
2017-Aug-17 00:00N 59°24' E 022°13'611.9
2017-Aug-16 23:31N 59°27' E 022°22'611.7
2017-Aug-16 23:00N 59°31' E 022°32'612.0
2017-Aug-16 22:30N 59°32' E 022°43'612.0
2017-Aug-16 22:00N 59°34' E 022°54'612.1
2017-Aug-16 21:30N 59°36' E 023°06'612.7
2017-Aug-16 21:01N 59°37' E 023°18'713.3
2017-Aug-16 20:30N 59°39' E 023°30'612.3
2017-Aug-16 20:00N 59°41' E 023°42'712.2
2017-Aug-16 19:28N 59°43' E 023°55'4 9.2
2017-Aug-16 19:00N 59°44' E 024°03'611.6
2017-Aug-16 18:30N 59°45' E 024°14'611.8
2017-Aug-16 18:00N 59°47' E 024°25'612.2
2017-Aug-16 17:31N 59°48' E 024°37'611.8
2017-Aug-16 17:00N 59°49' E 024°49'611.9
2017-Aug-16 16:31N 59°51' E 025°00'611.8
2017-Aug-16 16:00N 59°52' E 025°12'611.9
2017-Aug-16 15:30N 59°53' E 025°23'612.2
2017-Aug-16 15:00N 59°54' E 025°35'611.9
2017-Aug-16 14:31N 59°55' E 025°47'713.2
2017-Aug-16 14:00N 59°57' E 025°59'612.4
2017-Aug-16 13:30N 59°59' E 026°11'611.8
2017-Aug-16 13:01N 59°60' E 026°23'611.8
2017-Aug-16 12:30N 60°01' E 026°34'712.2
2017-Aug-16 11:58N 60°00' E 026°47'511.9
2017-Aug-16 11:31N 59°60' E 026°58'611.3
2017-Aug-16 11:00N 60°01' E 027°09'5 9.9
2017-Aug-16 10:30N 60°04' E 027°18'713.1
2017-Aug-16 10:00N 60°07' E 027°29'611.5
2017-Aug-16 09:31N 60°10' E 027°39'510.6
2017-Aug-16 09:00N 60°12' E 027°49'612.2
2017-Aug-16 08:30N 60°10' E 028°01'612.4
2017-Aug-16 08:01N 60°09' E 028°13'612.3
2017-Aug-16 07:30N 60°05' E 028°23'510.4
2017-Aug-16 07:00N 60°03' E 028°32'510.7
2017-Aug-16 06:31N 59°58' E 028°35'3 6.9
2017-Aug-16 06:00N 59°55' E 028°32'713.4
2017-Aug-16 05:30N 59°49' E 028°26'4 8.7
2017-Aug-16 05:01N 59°45' E 028°25'3 5.2
2017-Aug-16 04:31N 59°42' E 028°25'0 0.2
2017-Aug-16 04:00N 59°42' E 028°26'0 0.0
2017-Aug-16 03:27N 59°42' E 028°26'0 0.0
2017-Aug-16 02:51N 59°42' E 028°26'0 0.0
2017-Aug-16 02:29N 59°42' E 028°26'0 0.0
2017-Aug-16 01:57N 59°42' E 028°26'0 0.0
2017-Aug-16 01:30N 59°42' E 028°26'0 0.0
2017-Aug-16 00:57N 59°42' E 028°26'0 0.0
2017-Aug-16 00:24N 59°42' E 028°26'0 0.0
2017-Aug-15 23:42N 59°42' E 028°26'0 0.0
2017-Aug-15 23:30N 59°42' E 028°26'0 0.0
2017-Aug-15 22:57N 59°42' E 028°26'0 0.0
2017-Aug-15 22:30N 59°42' E 028°26'0 0.0
2017-Aug-15 22:00N 59°42' E 028°26'0 0.0
2017-Aug-15 21:30N 59°42' E 028°26'0 0.0
2017-Aug-15 21:00N 59°42' E 028°26'0 0.0
2017-Aug-15 20:30N 59°42' E 028°26'0 0.0
2017-Aug-15 20:00N 59°42' E 028°26'0 0.0
2017-Aug-15 19:27N 59°42' E 028°26'0 0.0
2017-Aug-15 19:00N 59°42' E 028°26'0 0.0
2017-Aug-15 18:30N 59°42' E 028°26'0 0.0
2017-Aug-15 18:00N 59°42' E 028°26'0 0.0
2017-Aug-15 17:30N 59°42' E 028°26'0 0.0
2017-Aug-15 16:51N 59°42' E 028°26'0 0.0
2017-Aug-15 16:30N 59°42' E 028°26'0 0.0
2017-Aug-15 15:51N 59°42' E 028°26'0 0.0
2017-Aug-15 15:21N 59°42' E 028°26'0 0.0
2017-Aug-15 14:54N 59°42' E 028°26'0 0.0
2017-Aug-15 14:24N 59°42' E 028°26'0 0.0
2017-Aug-15 13:54N 59°42' E 028°26'0 0.0
2017-Aug-15 13:24N 59°42' E 028°26'0 0.0
2017-Aug-15 12:54N 59°42' E 028°26'0 0.0
2017-Aug-15 12:24N 59°42' E 028°26'0 0.0
2017-Aug-15 11:57N 59°42' E 028°26'0 0.0
2017-Aug-15 11:27N 59°42' E 028°26'0 0.0
2017-Aug-15 10:57N 59°42' E 028°26'0 0.0
2017-Aug-15 10:27N 59°42' E 028°26'0 0.0
2017-Aug-15 09:57N 59°42' E 028°26'0 0.0
2017-Aug-15 09:27N 59°42' E 028°26'0 0.0
2017-Aug-15 09:00N 59°42' E 028°26'0 0.0
2017-Aug-15 08:30N 59°42' E 028°26'0 0.0
2017-Aug-15 08:00N 59°42' E 028°26'0 0.0
2017-Aug-15 07:24N 59°42' E 028°26'0 0.0
2017-Aug-15 07:00N 59°42' E 028°26'0 0.0
2017-Aug-15 06:27N 59°42' E 028°26'0 0.0
2017-Aug-15 06:00N 59°42' E 028°26'0 0.0
2017-Aug-15 05:30N 59°42' E 028°26'0 0.0
2017-Aug-15 05:00N 59°42' E 028°26'0 0.1
2017-Aug-15 04:30N 59°42' E 028°26'1 1.2
2017-Aug-15 04:00N 59°41' E 028°25'2 3.5
2017-Aug-15 03:31N 59°43' E 028°23'3 7.0
2017-Aug-15 03:00N 59°46' E 028°24'611.3
2017-Aug-15 02:30N 59°52' E 028°27'611.3
2017-Aug-15 02:00N 59°56' E 028°34'4 7.6
2017-Aug-15 01:31N 60°00' E 028°36'4 7.4
2017-Aug-15 01:01N 60°03' E 028°41'4 8.2
2017-Aug-15 00:30N 60°03' E 028°49'3 5.6
2017-Aug-15 00:01N 60°03' E 028°55'3 6.1
2017-Aug-14 23:30N 60°03' E 029°01'4 7.3
2017-Aug-14 23:00N 60°02' E 029°08'5 9.6
2017-Aug-14 22:30N 60°02' E 029°18'4 8.8
2017-Aug-14 22:00N 60°02' E 029°27'4 7.9
2017-Aug-14 21:30N 60°01' E 029°34'510.9
2017-Aug-14 21:00N 59°59' E 029°45'4 7.1
2017-Aug-14 20:30N 59°57' E 029°51'5 9.5
2017-Aug-14 20:00N 59°55' E 029°60'4 8.2
2017-Aug-14 19:30N 59°54' E 030°07'2 3.1
2017-Aug-14 18:58N 59°53' E 030°10'0 0.0
2017-Aug-14 18:28N 59°53' E 030°10'0 0.0
2017-Aug-14 17:58N 59°53' E 030°10'0 0.0
2017-Aug-14 17:28N 59°53' E 030°10'0 0.0
2017-Aug-14 16:58N 59°53' E 030°10'0 0.0
2017-Aug-14 16:25N 59°53' E 030°10'0 0.0
2017-Aug-14 15:58N 59°53' E 030°10'0 0.0
2017-Aug-14 15:28N 59°53' E 030°10'0 0.0
2017-Aug-14 14:58N 59°53' E 030°10'0 0.0
2017-Aug-14 14:28N 59°53' E 030°10'0 0.0
2017-Aug-14 13:58N 59°53' E 030°10'0 0.0
2017-Aug-14 13:28N 59°53' E 030°10'0 0.0
2017-Aug-14 12:58N 59°53' E 030°10'0 0.0
2017-Aug-14 12:28N 59°53' E 030°10'0 0.0
2017-Aug-14 11:58N 59°53' E 030°10'0 0.0
2017-Aug-14 11:28N 59°53' E 030°10'0 0.0
2017-Aug-14 10:58N 59°53' E 030°10'0 0.0
2017-Aug-14 10:28N 59°53' E 030°10'0 0.0
2017-Aug-14 09:58N 59°53' E 030°10'0 0.0
2017-Aug-14 09:28N 59°53' E 030°10'0 0.0
2017-Aug-14 08:58N 59°53' E 030°10'0 0.0
2017-Aug-14 08:28N 59°53' E 030°10'0 0.0
2017-Aug-14 07:58N 59°53' E 030°10'0 0.0
2017-Aug-14 07:28N 59°53' E 030°10'0 0.0
2017-Aug-14 06:52N 59°53' E 030°10'0 0.0
2017-Aug-14 06:25N 59°53' E 030°10'0 0.0
2017-Aug-14 06:00N 59°53' E 030°10'0 0.0
2017-Aug-14 05:28N 59°53' E 030°10'0 0.0
2017-Aug-14 04:58N 59°53' E 030°10'0 0.0
2017-Aug-14 04:28N 59°53' E 030°10'0 0.0
2017-Aug-14 03:58N 59°53' E 030°10'0 0.0
2017-Aug-14 03:28N 59°53' E 030°10'0 0.0
2017-Aug-14 02:58N 59°53' E 030°10'0 0.0
2017-Aug-14 02:28N 59°53' E 030°10'0 0.0
2017-Aug-14 01:58N 59°53' E 030°10'0 0.0
2017-Aug-14 01:28N 59°53' E 030°10'0 0.0
2017-Aug-14 00:58N 59°53' E 030°10'0 0.0
2017-Aug-14 00:28N 59°53' E 030°10'0 0.0
2017-Aug-13 23:58N 59°53' E 030°10'0 0.0
2017-Aug-13 23:28N 59°53' E 030°10'0 0.0
2017-Aug-13 22:58N 59°53' E 030°10'0 0.0
2017-Aug-13 22:28N 59°53' E 030°10'0 0.0
2017-Aug-13 21:58N 59°53' E 030°10'0 0.0
2017-Aug-13 21:28N 59°53' E 030°10'0 0.0
2017-Aug-13 20:58N 59°53' E 030°10'0 0.0
2017-Aug-13 20:28N 59°53' E 030°10'0 0.0
2017-Aug-13 19:55N 59°53' E 030°10'0 0.0
2017-Aug-13 19:28N 59°53' E 030°10'0 0.0
2017-Aug-13 18:55N 59°53' E 030°10'0 0.0
2017-Aug-13 18:28N 59°53' E 030°10'0 0.0
2017-Aug-13 17:58N 59°53' E 030°10'0 0.0
2017-Aug-13 17:28N 59°53' E 030°10'0 0.0
2017-Aug-13 16:58N 59°53' E 030°10'0 0.0
2017-Aug-13 16:28N 59°53' E 030°10'0 0.0
2017-Aug-13 15:58N 59°53' E 030°10'0 0.0
2017-Aug-13 15:28N 59°53' E 030°10'0 0.0
2017-Aug-13 14:58N 59°53' E 030°10'0 0.0
2017-Aug-13 14:28N 59°53' E 030°10'0 0.0
2017-Aug-13 13:58N 59°53' E 030°10'0 0.0
2017-Aug-13 13:28N 59°53' E 030°10'0 0.0
2017-Aug-13 12:58N 59°53' E 030°10'0 0.0
2017-Aug-13 12:28N 59°53' E 030°10'0 0.0
2017-Aug-13 11:58N 59°53' E 030°10'0 0.0
2017-Aug-13 11:28N 59°53' E 030°10'0 0.0
2017-Aug-13 10:58N 59°53' E 030°10'0 0.0
2017-Aug-13 10:28N 59°53' E 030°10'0 0.0
2017-Aug-13 09:58N 59°53' E 030°10'0 0.0
2017-Aug-13 09:28N 59°53' E 030°10'0 0.0
2017-Aug-13 08:58N 59°53' E 030°10'0 0.0
2017-Aug-13 08:28N 59°53' E 030°10'0 0.0
2017-Aug-13 07:58N 59°53' E 030°10'0 0.0
2017-Aug-13 07:28N 59°53' E 030°10'0 0.0
2017-Aug-13 06:55N 59°53' E 030°10'0 0.0
2017-Aug-13 06:28N 59°53' E 030°10'0 0.0
2017-Aug-13 05:58N 59°53' E 030°10'0 0.0
2017-Aug-13 05:28N 59°53' E 030°10'0 0.0
2017-Aug-13 04:58N 59°53' E 030°10'0 0.1
2017-Aug-13 04:30N 59°53' E 030°10'1 1.9
2017-Aug-13 04:00N 59°54' E 030°08'4 8.1
2017-Aug-13 03:30N 59°55' E 030°01'510.7
2017-Aug-13 03:00N 59°57' E 029°51'510.0
2017-Aug-13 02:30N 59°59' E 029°42'510.9
2017-Aug-13 02:01N 60°01' E 029°32'4 6.9
2017-Aug-13 01:30N 60°01' E 029°25'3 6.0
2017-Aug-13 01:00N 60°02' E 029°19'1 2.6
2017-Aug-13 00:30N 60°03' E 029°20'2 4.1
2017-Aug-13 00:00N 60°06' E 029°20'0 0.1
2017-Aug-12 23:08N 60°05' E 029°20'0 0.1
2017-Aug-12 22:56N 60°05' E 029°20'0 0.0
2017-Aug-12 22:11N 60°05' E 029°20'0 0.2
2017-Aug-12 21:59N 60°06' E 029°20'0 0.0
2017-Aug-12 16:56N 60°06' E 029°20'0 0.1
2017-Aug-12 16:23N 60°06' E 029°20'0 0.0
2017-Aug-12 15:14N 60°06' E 029°20'0 0.0
2017-Aug-12 14:05N 60°06' E 029°20'0 0.1
2017-Aug-12 13:47N 60°06' E 029°20'0 0.0
2017-Aug-12 13:05N 60°06' E 029°20'0 0.1
2017-Aug-12 12:53N 60°06' E 029°20'0 0.1
2017-Aug-12 12:29N 60°06' E 029°20'0 0.1
2017-Aug-12 11:59N 60°06' E 029°20'0 0.0
2017-Aug-12 11:02N 60°06' E 029°20'0 0.3
2017-Aug-12 10:59N 60°06' E 029°20'0 0.3
2017-Aug-12 10:29N 60°06' E 029°20'0 0.1
2017-Aug-12 09:59N 60°06' E 029°20'0 0.1
2017-Aug-12 09:29N 60°06' E 029°20'0 0.0
2017-Aug-12 08:59N 60°06' E 029°20'0 0.0
2017-Aug-12 08:29N 60°06' E 029°20'0 0.0
2017-Aug-12 07:59N 60°06' E 029°20'0 0.0
2017-Aug-12 07:29N 60°06' E 029°20'0 0.0
2017-Aug-12 06:59N 60°06' E 029°20'0 0.0
2017-Aug-12 06:29N 60°06' E 029°20'0 0.0
2017-Aug-12 05:59N 60°06' E 029°20'0 0.0
2017-Aug-12 05:29N 60°06' E 029°20'0 0.0
2017-Aug-12 04:59N 60°06' E 029°20'0 0.0
2017-Aug-12 04:29N 60°06' E 029°20'0 0.3
2017-Aug-12 04:01N 60°06' E 029°20'1 1.4
2017-Aug-12 03:30N 60°05' E 029°20'1 2.9
2017-Aug-12 03:01N 60°03' E 029°20'2 4.5
2017-Aug-12 02:30N 60°02' E 029°16'3 6.8
2017-Aug-12 02:00N 60°02' E 029°10'3 5.9
2017-Aug-12 01:31N 60°02' E 029°04'2 5.0
2017-Aug-12 01:01N 60°02' E 028°59'3 6.1
2017-Aug-12 00:31N 60°02' E 028°53'4 7.5
2017-Aug-12 00:00N 60°02' E 028°45'4 7.7
2017-Aug-11 23:31N 60°02' E 028°37'4 7.5
2017-Aug-11 23:00N 60°03' E 028°30'4 7.2
2017-Aug-11 22:30N 60°04' E 028°23'4 7.4
2017-Aug-11 22:00N 60°06' E 028°17'4 7.4
2017-Aug-11 21:30N 60°08' E 028°11'4 7.6
2017-Aug-11 21:01N 60°09' E 028°03'4 7.7
2017-Aug-11 20:30N 60°10' E 027°56'4 7.3
2017-Aug-11 20:00N 60°10' E 027°49'4 7.4
2017-Aug-11 19:30N 60°09' E 027°42'4 8.2
2017-Aug-11 19:00N 60°07' E 027°35'3 5.7
2017-Aug-11 18:30N 60°06' E 027°30'3 5.8
2017-Aug-11 18:00N 60°04' E 027°25'3 6.3
2017-Aug-11 17:30N 60°02' E 027°19'4 7.6
2017-Aug-11 17:00N 60°00' E 027°13'4 7.4
2017-Aug-11 16:30N 59°59' E 027°06'4 7.2
2017-Aug-11 16:01N 59°58' E 026°59'4 7.6
2017-Aug-11 15:30N 59°59' E 026°52'4 7.7
2017-Aug-11 15:00N 59°60' E 026°44'2 4.6
2017-Aug-11 14:30N 60°01' E 026°41'8 7.7
2017-Aug-11 13:30N 59°60' E 026°56'510.0
2017-Aug-11 13:00N 60°00' E 027°06'5 9.8
2017-Aug-11 12:30N 60°03' E 027°14'4 8.1
2017-Aug-11 12:01N 60°05' E 027°21'3 6.9
2017-Aug-11 11:31N 60°06' E 027°27'3 6.6
2017-Aug-11 11:00N 60°08' E 027°33'3 6.7
2017-Aug-11 10:31N 60°10' E 027°39'3 6.8
2017-Aug-11 10:00N 60°12' E 027°45'3 6.3
2017-Aug-11 09:30N 60°11' E 027°51'3 6.6
2017-Aug-11 09:00N 60°11' E 027°57'3 6.9
2017-Aug-11 08:30N 60°10' E 028°04'3 6.9
2017-Aug-11 08:00N 60°09' E 028°11'4 7.4
2017-Aug-11 07:30N 60°08' E 028°18'1 2.7
2017-Aug-11 07:01N 60°07' E 028°15'2 4.7
2017-Aug-11 06:30N 60°08' E 028°11'2 4.4
2017-Aug-11 06:01N 60°08' E 028°06'2 4.4
2017-Aug-11 05:30N 60°09' E 028°02'2 4.6
2017-Aug-11 05:00N 60°09' E 027°58'4 7.2
2017-Aug-11 04:30N 60°10' E 027°51'612.7
2017-Aug-11 04:01N 60°08' E 027°39'4 7.2
2017-Aug-11 03:30N 60°06' E 027°32'3 5.9
2017-Aug-11 03:00N 60°05' E 027°27'3 6.1
2017-Aug-11 02:30N 60°03' E 027°22'3 6.1
2017-Aug-11 02:00N 60°02' E 027°17'3 6.2
2017-Aug-11 01:30N 59°60' E 027°12'3 5.9
2017-Aug-11 01:01N 59°58' E 027°07'3 5.8
2017-Aug-11 00:30N 59°58' E 027°01'3 6.6
2017-Aug-11 00:01N 59°58' E 026°55'3 6.5
2017-Aug-10 23:30N 59°59' E 026°48'3 6.5
2017-Aug-10 23:00N 59°60' E 026°42'3 6.3
2017-Aug-10 22:30N 59°59' E 026°36'3 6.5
2017-Aug-10 22:00N 59°58' E 026°29'3 6.4
2017-Aug-10 21:30N 59°57' E 026°24'3 5.3
2017-Aug-10 21:00N 59°56' E 026°19'1 2.6
2017-Aug-10 20:30N 59°55' E 026°16'1 2.8
2017-Aug-10 20:01N 59°55' E 026°13'1 2.8
2017-Aug-10 19:31N 59°55' E 026°11'1 2.6
2017-Aug-10 19:01N 59°54' E 026°08'1 2.6
2017-Aug-10 18:30N 59°54' E 026°06'1 2.7
2017-Aug-10 18:00N 59°53' E 026°03'1 2.7
2017-Aug-10 17:31N 59°53' E 026°01'1 2.8
2017-Aug-10 17:00N 59°53' E 025°58'1 2.4
2017-Aug-10 16:30N 59°53' E 025°56'1 2.3
2017-Aug-10 16:00N 59°52' E 025°54'1 2.9
2017-Aug-10 15:30N 59°51' E 025°51'1 2.7
2017-Aug-10 15:00N 59°51' E 025°48'1 2.3
2017-Aug-10 14:30N 59°51' E 025°46'1 2.0
2017-Aug-10 14:00N 59°51' E 025°44'1 1.7
2017-Aug-10 13:30N 59°51' E 025°43'1 2.2
2017-Aug-10 13:00N 59°50' E 025°40'1 2.1
2017-Aug-10 12:30N 59°50' E 025°38'1 1.9
2017-Aug-10 12:00N 59°50' E 025°36'1 2.3
2017-Aug-10 11:30N 59°50' E 025°34'1 2.3
2017-Aug-10 11:00N 59°50' E 025°32'1 2.2
2017-Aug-10 10:31N 59°49' E 025°30'1 2.1
2017-Aug-10 10:00N 59°49' E 025°28'1 2.6
2017-Aug-10 09:30N 59°49' E 025°25'1 2.3
2017-Aug-10 09:01N 59°49' E 025°23'1 2.6
2017-Aug-10 08:30N 59°49' E 025°20'2 4.2
2017-Aug-10 08:01N 59°49' E 025°16'3 6.2
2017-Aug-10 07:30N 59°48' E 025°10'3 6.2
2017-Aug-10 07:00N 59°48' E 025°04'3 6.3
2017-Aug-10 06:31N 59°47' E 024°58'3 6.6
2017-Aug-10 06:01N 59°46' E 024°52'3 6.9
2017-Aug-10 05:30N 59°46' E 024°45'4 7.1
2017-Aug-10 05:00N 59°45' E 024°38'4 8.2
2017-Aug-10 04:30N 59°44' E 024°30'4 7.9
2017-Aug-10 04:00N 59°43' E 024°22'4 7.8
2017-Aug-10 03:30N 59°42' E 024°15'4 7.9
2017-Aug-10 03:00N 59°41' E 024°07'4 8.0
2017-Aug-10 02:30N 59°39' E 024°00'4 7.9
2017-Aug-10 02:00N 59°38' E 023°53'4 7.8
2017-Aug-10 01:30N 59°37' E 023°45'4 7.9
2017-Aug-10 01:01N 59°36' E 023°38'4 8.0
2017-Aug-10 00:31N 59°34' E 023°30'4 8.1
2017-Aug-10 00:00N 59°33' E 023°23'4 8.0
2017-Aug-09 23:31N 59°32' E 023°15'4 7.9
2017-Aug-09 23:01N 59°31' E 023°08'4 7.9
2017-Aug-09 22:31N 59°29' E 023°01'  

Dump ship's entire track history